Aviation Digital Data Service (ADDS)

Output produced by METARs form (1304 UTC 26 April 2015)
found at http://aviationweather.gov/adds/metars/
 
KGMU 261238Z 2613/2712 VRB03KT P6SM FEW004 
     TEMPO 2613/2614 6SM BR SCT004 
     FM261400 VRB03KT P6SM BKN009 
     FM261600 VRB03KT P6SM BKN100 
     FM270000 04007KT P6SM BKN050 
     FM270400 06003KT P6SM BKN050